Riverside, CA (92518)

11:49 PM PDT on October 24, 2014 (GMT -0700)
Orangecrest | Change Station
CLOSE
Current Station
Personal Weather Station
Location: Riverside, CA
Elevation: 1683 ft
Nearby Weather Stations

Elev 1683 ft 33.90 °N, 117.30 °W | Updated 37 seconds ago

Clear
Clear
65.3 °F
Feels Like 65.3 °F
N
0.0
Wind Variable Wind from North
Gusts 0.0 mph

Today
High -- | Low -- °F
--% Chance of Precip.
Yesterday
High -- | Low -- °F
Precip. -- in
7:01 AM 6:04 PM
New Moon, 2% visible
Pressure 30.02 in
Visibility 10.0 miles
Clouds Clear
Dew Point 37 °F
Humidity 35%
Rainfall 0.00 in
Snow Depth Not available.
UV 0 out of 12
Pollen 4.10 out of 12
Ozone Good
PM2.5 Moderate
Flu Activity Sporadic
METAR KRIV 250558Z AUTO 00000KT 10SM CLR 16/00 A3005 RMK AO2 SLP165 T01610001 10298 20161 52012

More Conditions Fewer Conditions

Pressure 30.02 in
Visibility 10.0 miles
Clouds Clear
Dew Point 37 °F
Humidity 35%
Rainfall 0.00 in
Snow Depth Not available.
UV 0 out of 12
Pollen 4.10 out of 12
Ozone Good
PM2.5 Moderate
Flu Activity Sporadic
METAR KRIV 250558Z AUTO 00000KT 10SM CLR 16/00 A3005 RMK AO2 SLP165 T01610001 10298 20161 52012

More Conditions Fewer Conditions

10-Day Weather Forecast

Almanac

Astronomy

Oct. 24, 2014 Rise Set
Actual Time 7:01 AM PDT 6:04 PM PDT
Civil Twilight 6:36 AM PDT 6:29 PM PDT
Nautical Twilight 6:06 AM PDT 6:59 PM PDT
Astronomical Twilight 5:37 AM PDT 7:28 PM PDT
Moon 7:43 AM PDT (10/24) 6:50 PM PDT (10/24)
Length of Visible Light 11h 53m
Length of Day
11h 02m
Tomorrow will be 1m 56s shorter.
New Moon, 2% of the Moon is Illuminated
Oct 25
New Moon
Oct 30
First Quarter
Nov 6
Full
Nov 14
Last Quarter
Nov 22
New

Community

WunderPhotos

Upload Photos

1,764,787 photos uploaded!

Nearby

Air Quality

  Air Quality AQ Index Pollutant
Yesterday Moderate
PM10
Yesterday Moderate
OZONE
Current Moderate
PM2.5
Current Good
OZONE
Saturday Good
PM10
Saturday Moderate
OZONE
Saturday Good
CO
Saturday Good
NO2

Snow Depth

Station Depth Elevation
Virginia Lakes Ridge 0 in 9200 ft
Leavitt Lake 1 in 9400 ft
Leavitt Meadows 1 in 7200 ft
Summit Meadow 1 in 9122 ft
Monitor Pass 1 in 8350 ft

Earthquake Activity

City Distance Mag. Time & Date
Brea, California 35 miles 2.9 3:35 PM PDT
2014-10-23
Brea, California 34 miles 2.8 3:34 PM PDT
2014-10-23
Corona, California 21 miles 2.5 1:09 PM PDT
2014-10-23
Minimum magnitude displayed is 2.5.

Coastal Water Temperatures

Place Temperature
No Stations Reporting

Nearby Weather Stations